createdAt,value
2016-08-27T00:00:34.260Z,0
2016-08-27T00:01:08.536Z,0
2016-08-27T00:01:42.820Z,0
2016-08-27T00:02:17.110Z,0
2016-08-27T00:02:51.388Z,0
2016-08-27T00:03:25.674Z,0
2016-08-27T00:03:59.975Z,0
2016-08-27T00:04:34.269Z,0
2016-08-27T00:05:08.558Z,0
2016-08-27T00:05:42.837Z,0
2016-08-27T00:06:17.153Z,0
2016-08-27T00:06:51.423Z,0
2016-08-27T00:07:25.703Z,0
2016-08-27T00:07:59.975Z,0
2016-08-27T00:08:34.261Z,0
2016-08-27T00:09:08.551Z,0
2016-08-27T00:09:42.836Z,0
2016-08-27T00:10:17.137Z,0
2016-08-27T00:10:51.415Z,0
2016-08-27T00:11:25.696Z,0
2016-08-27T00:11:59.974Z,0
2016-08-27T00:12:34.268Z,0
2016-08-27T00:13:08.552Z,0
2016-08-27T00:13:42.835Z,0
2016-08-27T00:14:17.119Z,0
2016-08-27T00:14:51.409Z,0
2016-08-27T00:15:25.699Z,0
2016-08-27T00:15:59.979Z,0
2016-08-27T00:16:34.251Z,0
2016-08-27T00:17:08.561Z,0
2016-08-27T00:17:42.847Z,0
2016-08-27T00:18:17.137Z,0
2016-08-27T00:18:51.411Z,0
2016-08-27T00:19:25.684Z,0
2016-08-27T00:19:59.969Z,0
2016-08-27T00:20:34.261Z,0
2016-08-27T00:21:08.532Z,0
2016-08-27T00:21:42.822Z,0
2016-08-27T00:22:17.112Z,0
2016-08-27T00:22:51.407Z,0
2016-08-27T00:23:25.702Z,0
2016-08-27T00:23:59.979Z,0
2016-08-27T00:24:34.267Z,0
2016-08-27T00:25:08.544Z,0
2016-08-27T00:25:42.824Z,0
2016-08-27T00:26:17.099Z,0
2016-08-27T00:26:51.393Z,0
2016-08-27T00:27:25.668Z,0
2016-08-27T00:27:59.950Z,0
2016-08-27T00:28:34.228Z,0
2016-08-27T00:29:08.499Z,0
2016-08-27T00:29:42.778Z,0
2016-08-27T00:30:17.056Z,0
2016-08-27T00:30:51.369Z,0
2016-08-27T00:31:25.663Z,0
2016-08-27T00:31:59.970Z,0
2016-08-27T00:32:34.256Z,0
2016-08-27T00:33:08.545Z,0
2016-08-27T00:33:42.854Z,0
2016-08-27T00:34:17.143Z,0
2016-08-27T00:34:51.447Z,0
2016-08-27T00:35:25.723Z,0
2016-08-27T00:36:00.009Z,0
2016-08-27T00:36:34.278Z,0
2016-08-27T00:37:08.546Z,0
2016-08-27T00:37:42.831Z,0
2016-08-27T00:38:17.107Z,0
2016-08-27T00:38:51.400Z,0
2016-08-27T00:39:25.697Z,0
2016-08-27T00:39:59.983Z,0
2016-08-27T00:40:34.260Z,0
2016-08-27T00:41:08.550Z,0
2016-08-27T00:41:42.844Z,0
2016-08-27T00:42:17.141Z,0
2016-08-27T00:42:51.417Z,0
2016-08-27T00:43:25.722Z,0
2016-08-27T00:43:59.998Z,0
2016-08-27T00:44:34.296Z,0
2016-08-27T00:45:08.579Z,0
2016-08-27T00:45:42.861Z,0
2016-08-27T00:46:17.131Z,0
2016-08-27T00:46:51.407Z,0
2016-08-27T00:47:25.695Z,0
2016-08-27T00:47:59.971Z,0
2016-08-27T00:48:34.259Z,0
2016-08-27T00:49:08.565Z,0
2016-08-27T00:49:42.857Z,0
2016-08-27T00:50:17.136Z,0
2016-08-27T00:50:51.428Z,0
2016-08-27T00:51:25.723Z,0
2016-08-27T00:52:00.010Z,0
2016-08-27T00:52:34.289Z,0
2016-08-27T00:53:08.573Z,0
2016-08-27T00:53:42.859Z,0
2016-08-27T00:54:17.144Z,0
2016-08-27T00:54:51.412Z,0
2016-08-27T00:55:25.698Z,0
2016-08-27T00:55:59.984Z,0
2016-08-27T00:56:35.005Z,0
2016-08-27T00:57:09.287Z,0
2016-08-27T00:57:43.563Z,0
2016-08-27T00:58:17.855Z,0
2016-08-27T00:58:52.147Z,0
2016-08-27T00:59:26.442Z,0
2016-08-27T01:00:00.731Z,0
2016-08-27T01:00:35.039Z,0
2016-08-27T01:01:09.327Z,0
2016-08-27T01:01:43.625Z,0
2016-08-27T01:02:17.910Z,0
2016-08-27T01:02:52.192Z,0
2016-08-27T01:03:26.499Z,0
2016-08-27T01:04:00.789Z,0
2016-08-27T01:04:35.072Z,0
2016-08-27T01:05:09.355Z,0
2016-08-27T01:05:43.636Z,0
2016-08-27T01:06:17.917Z,0
2016-08-27T01:06:52.201Z,0
2016-08-27T01:07:26.492Z,0
2016-08-27T01:08:00.790Z,0
2016-08-27T01:08:35.071Z,0
2016-08-27T01:09:09.356Z,0
2016-08-27T01:09:43.650Z,0
2016-08-27T01:10:17.929Z,0
2016-08-27T01:10:52.229Z,0
2016-08-27T01:11:26.518Z,0
2016-08-27T01:12:00.804Z,0
2016-08-27T01:12:35.099Z,0
2016-08-27T01:13:09.382Z,0
2016-08-27T01:13:43.655Z,0
2016-08-27T01:14:17.934Z,0
2016-08-27T01:14:52.214Z,0
2016-08-27T01:15:26.529Z,0
2016-08-27T01:16:00.149Z,0
2016-08-27T01:16:34.421Z,0
2016-08-27T01:17:08.699Z,0
2016-08-27T01:17:42.981Z,0
2016-08-27T01:18:17.249Z,0
2016-08-27T01:18:51.546Z,0
2016-08-27T01:19:25.823Z,0
2016-08-27T01:20:00.098Z,0
2016-08-27T01:20:34.396Z,0
2016-08-27T01:21:08.700Z,0
2016-08-27T01:21:42.995Z,0
2016-08-27T01:22:17.280Z,0
2016-08-27T01:22:51.575Z,0
2016-08-27T01:23:25.880Z,0
2016-08-27T01:24:24.206Z,0
2016-08-27T01:24:58.497Z,0
2016-08-27T01:25:32.775Z,0
2016-08-27T01:26:07.057Z,0
2016-08-27T01:26:41.352Z,0
2016-08-27T01:27:15.639Z,0
2016-08-27T01:27:49.916Z,0
2016-08-27T01:28:24.204Z,0
2016-08-27T01:28:58.502Z,0
2016-08-27T01:29:32.781Z,0
2016-08-27T01:30:07.074Z,0
2016-08-27T01:30:41.380Z,0
2016-08-27T01:31:15.668Z,0
2016-08-27T01:31:49.953Z,0
2016-08-27T01:32:24.246Z,0
2016-08-27T01:32:58.554Z,0
2016-08-27T01:33:32.852Z,0
2016-08-27T01:34:07.126Z,0
2016-08-27T01:34:41.410Z,0
2016-08-27T01:35:15.696Z,0
2016-08-27T01:35:49.979Z,0
2016-08-27T01:36:24.248Z,0
2016-08-27T01:36:58.547Z,0
2016-08-27T01:37:32.824Z,0
2016-08-27T01:38:07.111Z,0
2016-08-27T01:38:41.397Z,0
2016-08-27T01:39:15.703Z,0
2016-08-27T01:39:49.982Z,0
2016-08-27T01:40:24.269Z,0
2016-08-27T01:40:58.557Z,0
2016-08-27T01:41:32.837Z,0
2016-08-27T01:42:07.124Z,0
2016-08-27T01:42:41.412Z,0
2016-08-27T01:43:15.703Z,0
2016-08-27T01:43:49.988Z,0
2016-08-27T01:44:24.290Z,0
2016-08-27T01:44:58.568Z,0
2016-08-27T01:45:32.840Z,0
2016-08-27T01:46:07.110Z,0
2016-08-27T01:46:41.393Z,0
2016-08-27T01:47:15.668Z,0
2016-08-27T01:47:49.939Z,0
2016-08-27T01:48:24.232Z,0
2016-08-27T01:48:58.516Z,0
2016-08-27T01:49:32.794Z,0
2016-08-27T01:50:07.090Z,0
2016-08-27T01:50:41.376Z,0
2016-08-27T01:51:15.665Z,0
2016-08-27T01:51:49.951Z,0
2016-08-27T01:52:24.240Z,0
2016-08-27T01:52:58.526Z,0
2016-08-27T01:53:32.801Z,0
2016-08-27T01:54:07.079Z,0
2016-08-27T01:54:41.355Z,0
2016-08-27T01:55:15.637Z,0
2016-08-27T01:55:49.912Z,0
2016-08-27T01:56:24.202Z,0
2016-08-27T01:56:58.491Z,0
2016-08-27T01:57:32.782Z,0
2016-08-27T01:58:07.061Z,0
2016-08-27T01:58:41.337Z,0
2016-08-27T01:59:15.619Z,0
2016-08-27T01:59:49.901Z,0
2016-08-27T02:00:24.189Z,0
2016-08-27T02:00:58.468Z,0
2016-08-27T02:01:32.738Z,0
2016-08-27T02:02:07.019Z,0
2016-08-27T02:02:41.307Z,0
2016-08-27T02:03:16.168Z,0
2016-08-27T02:03:50.457Z,0
2016-08-27T02:04:24.750Z,0
2016-08-27T02:04:59.054Z,0
2016-08-27T02:05:33.329Z,0
2016-08-27T02:06:07.630Z,0
2016-08-27T02:06:41.920Z,0
2016-08-27T02:07:16.227Z,0
2016-08-27T02:07:50.527Z,0
2016-08-27T02:08:24.807Z,0
2016-08-27T02:08:59.087Z,0
2016-08-27T02:09:33.381Z,0
2016-08-27T02:10:07.665Z,0
2016-08-27T02:10:41.966Z,0
2016-08-27T02:11:16.249Z,0
2016-08-27T02:11:50.531Z,0
2016-08-27T02:12:24.810Z,0
2016-08-27T02:12:59.091Z,0
2016-08-27T02:13:33.367Z,0
2016-08-27T02:14:07.666Z,0
2016-08-27T02:14:41.955Z,0
2016-08-27T02:15:16.228Z,0
2016-08-27T02:15:50.511Z,0
2016-08-27T02:16:24.792Z,0
2016-08-27T02:16:59.069Z,0
2016-08-27T02:17:33.353Z,0
2016-08-27T02:18:07.633Z,0
2016-08-27T02:18:41.908Z,0
2016-08-27T02:19:16.189Z,0
2016-08-27T02:19:50.463Z,0
2016-08-27T02:20:24.759Z,0
2016-08-27T02:20:59.039Z,0
2016-08-27T02:21:33.336Z,0
2016-08-27T02:22:07.629Z,0
2016-08-27T02:22:41.910Z,0
2016-08-27T02:23:16.200Z,0
2016-08-27T02:23:50.480Z,0
2016-08-27T02:24:24.765Z,0
2016-08-27T02:24:59.058Z,0
2016-08-27T02:25:33.331Z,0
2016-08-27T02:26:07.613Z,0
2016-08-27T02:26:41.885Z,0
2016-08-27T02:27:16.190Z,0
2016-08-27T02:27:50.478Z,0
2016-08-27T02:28:24.747Z,0
2016-08-27T02:28:59.044Z,0
2016-08-27T02:29:33.325Z,0
2016-08-27T02:30:07.622Z,0
2016-08-27T02:30:41.913Z,0
2016-08-27T02:31:16.180Z,0
2016-08-27T02:31:50.456Z,0
2016-08-27T02:32:24.778Z,0
2016-08-27T02:32:59.075Z,0
2016-08-27T02:33:33.356Z,0
2016-08-27T02:34:07.652Z,0
2016-08-27T02:34:41.927Z,0
2016-08-27T02:35:16.204Z,0
2016-08-27T02:35:50.498Z,0
2016-08-27T02:36:24.791Z,0
2016-08-27T02:36:59.078Z,0
2016-08-27T02:37:33.364Z,0
2016-08-27T02:38:07.644Z,0
2016-08-27T02:38:41.926Z,0
2016-08-27T02:39:16.202Z,0
2016-08-27T02:39:50.496Z,0
2016-08-27T02:40:24.779Z,0
2016-08-27T02:40:59.071Z,0
2016-08-27T02:41:33.393Z,0
2016-08-27T02:42:07.676Z,0
2016-08-27T02:42:41.959Z,0
2016-08-27T02:43:16.240Z,0
2016-08-27T02:43:50.538Z,0
2016-08-27T02:44:24.801Z,0
2016-08-27T02:44:59.097Z,0
2016-08-27T02:45:33.394Z,0
2016-08-27T02:46:07.674Z,0
2016-08-27T02:46:41.968Z,0
2016-08-27T02:47:16.251Z,0
2016-08-27T02:47:50.541Z,0
2016-08-27T02:48:24.815Z,0
2016-08-27T02:48:59.106Z,0
2016-08-27T02:49:33.911Z,0
2016-08-27T02:50:08.201Z,0
2016-08-27T02:50:42.471Z,0
2016-08-27T02:51:16.754Z,0
2016-08-27T02:51:51.036Z,0
2016-08-27T02:52:25.338Z,0
2016-08-27T02:52:59.620Z,0
2016-08-27T02:53:33.893Z,0
2016-08-27T02:54:08.195Z,0
2016-08-27T02:54:42.507Z,0
2016-08-27T02:55:16.780Z,0
2016-08-27T02:55:51.057Z,0
2016-08-27T02:56:25.356Z,0
2016-08-27T02:56:59.637Z,0
2016-08-27T02:57:33.915Z,0
2016-08-27T02:58:08.225Z,0
2016-08-27T02:58:42.503Z,0
2016-08-27T02:59:16.795Z,0
2016-08-27T02:59:51.073Z,0
2016-08-27T03:00:25.339Z,0
2016-08-27T03:00:59.623Z,0
2016-08-27T03:01:33.910Z,0
2016-08-27T03:02:08.199Z,0
2016-08-27T03:02:42.496Z,0
2016-08-27T03:03:16.775Z,0
2016-08-27T03:03:51.066Z,0
2016-08-27T03:04:25.363Z,0
2016-08-27T03:04:59.643Z,0
2016-08-27T03:05:33.926Z,0
2016-08-27T03:06:08.212Z,0
2016-08-27T03:06:42.487Z,0
2016-08-27T03:07:16.771Z,0
2016-08-27T03:07:51.074Z,0
2016-08-27T03:08:25.340Z,0
2016-08-27T03:08:59.629Z,0
2016-08-27T03:09:33.923Z,0
2016-08-27T03:10:08.205Z,0
2016-08-27T03:10:42.485Z,0
2016-08-27T03:11:16.791Z,0
2016-08-27T03:11:51.088Z,0
2016-08-27T03:12:25.385Z,0
2016-08-27T03:13:23.755Z,0
2016-08-27T03:13:58.059Z,0
2016-08-27T03:14:32.341Z,0
2016-08-27T03:15:06.627Z,0
2016-08-27T03:15:40.913Z,0
2016-08-27T03:16:15.219Z,0
2016-08-27T03:16:49.504Z,0
2016-08-27T03:17:23.787Z,0
2016-08-27T03:17:58.065Z,0
2016-08-27T03:18:32.365Z,0
2016-08-27T03:19:06.650Z,0
2016-08-27T03:19:40.940Z,0
2016-08-27T03:20:15.215Z,0
2016-08-27T03:20:49.506Z,0
2016-08-27T03:21:23.795Z,0
2016-08-27T03:21:58.101Z,0
2016-08-27T03:22:32.371Z,0
2016-08-27T03:23:30.478Z,0
2016-08-27T03:24:04.772Z,0
2016-08-27T03:24:39.079Z,0
2016-08-27T03:25:13.370Z,0
2016-08-27T03:25:47.655Z,0
2016-08-27T03:26:21.947Z,0
2016-08-27T03:26:56.238Z,0
2016-08-27T03:27:30.539Z,0
2016-08-27T03:28:04.817Z,0
2016-08-27T03:28:39.106Z,0
2016-08-27T03:29:13.409Z,0
2016-08-27T03:29:47.688Z,0
2016-08-27T03:30:21.974Z,0
2016-08-27T03:30:56.288Z,0
2016-08-27T03:31:30.579Z,0
2016-08-27T03:32:04.862Z,0
2016-08-27T03:32:39.161Z,0
2016-08-27T03:33:13.451Z,0
2016-08-27T03:33:47.722Z,0
2016-08-27T03:34:22.036Z,0
2016-08-27T03:34:56.337Z,0
2016-08-27T03:35:30.631Z,0
2016-08-27T03:36:04.910Z,0
2016-08-27T03:36:39.201Z,0
2016-08-27T03:37:13.489Z,0
2016-08-27T03:37:47.771Z,0
2016-08-27T03:38:22.058Z,0
2016-08-27T03:38:56.329Z,0
2016-08-27T03:39:30.610Z,0
2016-08-27T03:40:04.896Z,0
2016-08-27T03:40:39.203Z,0
2016-08-27T03:41:13.512Z,0
2016-08-27T03:41:47.831Z,0
2016-08-27T03:42:22.138Z,0
2016-08-27T03:43:20.398Z,0
2016-08-27T03:43:54.706Z,0
2016-08-27T03:44:29.001Z,0
2016-08-27T03:45:03.286Z,0
2016-08-27T03:45:37.587Z,0
2016-08-27T03:46:11.878Z,0
2016-08-27T03:46:46.168Z,0
2016-08-27T03:47:20.427Z,0
2016-08-27T03:47:54.701Z,0
2016-08-27T03:48:28.982Z,0
2016-08-27T03:49:03.282Z,0
2016-08-27T03:49:37.583Z,0
2016-08-27T03:50:11.896Z,0
2016-08-27T03:50:46.191Z,0
2016-08-27T03:51:20.468Z,0
2016-08-27T03:51:54.762Z,0
2016-08-27T03:52:29.037Z,0
2016-08-27T03:53:03.316Z,0
2016-08-27T03:53:37.587Z,0
2016-08-27T03:54:11.864Z,0
2016-08-27T03:54:46.170Z,0
2016-08-27T03:55:20.455Z,0
2016-08-27T03:55:54.726Z,0
2016-08-27T03:56:29.023Z,0
2016-08-27T03:57:03.301Z,0
2016-08-27T03:57:37.604Z,0
2016-08-27T03:58:11.888Z,0
2016-08-27T03:58:46.174Z,0
2016-08-27T03:59:20.452Z,0
2016-08-27T03:59:54.744Z,0
2016-08-27T04:00:29.013Z,0
2016-08-27T04:01:03.290Z,0
2016-08-27T04:01:37.577Z,0
2016-08-27T04:02:11.874Z,0
2016-08-27T04:02:46.157Z,0
2016-08-27T04:03:20.442Z,0
2016-08-27T04:03:54.718Z,0
2016-08-27T04:04:29.001Z,0
2016-08-27T04:05:03.297Z,0
2016-08-27T04:05:37.605Z,0
2016-08-27T04:06:11.891Z,4
2016-08-27T04:06:46.168Z,4
2016-08-27T04:07:20.472Z,4
2016-08-27T04:07:54.762Z,0
2016-08-27T04:08:29.053Z,0
2016-08-27T04:09:03.359Z,0
2016-08-27T04:09:37.649Z,4
2016-08-27T04:10:11.945Z,4
2016-08-27T04:10:46.228Z,4
2016-08-27T04:11:20.512Z,4
2016-08-27T04:11:54.794Z,4
2016-08-27T04:12:29.071Z,4
2016-08-27T04:13:03.349Z,4
2016-08-27T04:13:37.636Z,8
2016-08-27T04:14:11.919Z,4
2016-08-27T04:14:46.210Z,8
2016-08-27T04:15:20.514Z,8
2016-08-27T04:15:54.809Z,8
2016-08-27T04:16:29.097Z,8
2016-08-27T04:17:03.360Z,8
2016-08-27T04:17:37.648Z,12
2016-08-27T04:18:11.941Z,12
2016-08-27T04:18:46.245Z,12
2016-08-27T04:19:20.532Z,12
2016-08-27T04:19:54.823Z,12
2016-08-27T04:20:29.113Z,16
2016-08-27T04:21:03.393Z,16
2016-08-27T04:21:37.668Z,20
2016-08-27T04:22:11.945Z,16
2016-08-27T04:22:46.235Z,20
2016-08-27T04:23:20.523Z,20
2016-08-27T04:23:54.809Z,24
2016-08-27T04:24:29.097Z,24
2016-08-27T04:25:03.391Z,28
2016-08-27T04:25:38.400Z,28
2016-08-27T04:26:12.706Z,28
2016-08-27T04:26:46.981Z,32
2016-08-27T04:27:21.270Z,32
2016-08-27T04:27:55.549Z,36
2016-08-27T04:28:29.838Z,36
2016-08-27T04:29:04.102Z,36
2016-08-27T04:29:38.396Z,40
2016-08-27T04:30:12.682Z,40
2016-08-27T04:30:46.968Z,40
2016-08-27T04:31:21.242Z,48
2016-08-27T04:31:55.513Z,48
2016-08-27T04:32:29.788Z,48
2016-08-27T04:33:04.081Z,52
2016-08-27T04:33:38.368Z,52
2016-08-27T04:34:12.649Z,56
2016-08-27T04:34:46.925Z,56
2016-08-27T04:35:21.230Z,60
2016-08-27T04:35:55.518Z,64
2016-08-27T04:36:29.800Z,68
2016-08-27T04:37:04.096Z,68
2016-08-27T04:37:38.390Z,68
2016-08-27T04:38:12.680Z,72
2016-08-27T04:38:46.975Z,76
2016-08-27T04:39:21.273Z,80
2016-08-27T04:39:55.556Z,80
2016-08-27T04:40:29.848Z,84
2016-08-27T04:41:04.147Z,88
2016-08-27T04:41:38.426Z,92
2016-08-27T04:42:12.703Z,96
2016-08-27T04:42:46.985Z,100
2016-08-27T04:43:21.262Z,104
2016-08-27T04:43:55.560Z,104
2016-08-27T04:44:29.860Z,108
2016-08-27T04:45:04.138Z,112
2016-08-27T04:45:38.441Z,116
2016-08-27T04:46:12.726Z,116
2016-08-27T04:46:47.004Z,124
2016-08-27T04:47:21.323Z,128
2016-08-27T04:47:55.610Z,128
2016-08-27T04:48:29.885Z,132
2016-08-27T04:49:04.180Z,140
2016-08-27T04:49:38.455Z,140
2016-08-27T04:50:12.726Z,144
2016-08-27T04:50:47.019Z,148
2016-08-27T04:51:21.291Z,152
2016-08-27T04:51:55.576Z,156
2016-08-27T04:52:29.866Z,156
2016-08-27T04:53:04.158Z,164
2016-08-27T04:53:38.442Z,168
2016-08-27T04:54:12.734Z,168
2016-08-27T04:54:47.005Z,176
2016-08-27T04:55:21.286Z,180
2016-08-27T04:55:55.580Z,180
2016-08-27T04:56:29.868Z,184
2016-08-27T04:57:04.171Z,192
2016-08-27T04:57:38.471Z,196
2016-08-27T04:58:12.756Z,196
2016-08-27T04:58:47.058Z,200
2016-08-27T04:59:21.358Z,204
2016-08-27T04:59:55.650Z,212
2016-08-27T05:00:29.930Z,216
2016-08-27T05:01:04.212Z,220
2016-08-27T05:01:38.501Z,224
2016-08-27T05:02:12.788Z,232
2016-08-27T05:02:47.076Z,232
2016-08-27T05:03:21.355Z,236
2016-08-27T05:03:55.631Z,244
2016-08-27T05:04:29.909Z,248
2016-08-27T05:05:04.201Z,256
2016-08-27T05:05:38.477Z,256
2016-08-27T05:06:12.769Z,264
2016-08-27T05:06:47.037Z,268
2016-08-27T05:07:21.319Z,272
2016-08-27T05:07:55.597Z,280
2016-08-27T05:08:29.890Z,284
2016-08-27T05:09:04.182Z,288
2016-08-27T05:09:38.460Z,292
2016-08-27T05:10:12.769Z,296
2016-08-27T05:10:47.066Z,304
2016-08-27T05:11:21.360Z,304
2016-08-27T05:11:55.684Z,308
2016-08-27T05:12:29.975Z,316
2016-08-27T05:13:04.284Z,320
2016-08-27T05:13:38.561Z,324
2016-08-27T05:14:12.936Z,328
2016-08-27T05:14:47.227Z,332
2016-08-27T05:15:21.519Z,340
2016-08-27T05:15:55.803Z,344
2016-08-27T05:16:30.089Z,352
2016-08-27T05:17:04.377Z,356
2016-08-27T05:17:38.665Z,360
2016-08-27T05:18:12.950Z,364
2016-08-27T05:18:47.268Z,372
2016-08-27T05:19:21.549Z,380
2016-08-27T05:19:55.817Z,388
2016-08-27T05:20:30.099Z,396
2016-08-27T05:21:04.376Z,404
2016-08-27T05:21:38.675Z,416
2016-08-27T05:22:12.977Z,424
2016-08-27T05:22:47.267Z,432
2016-08-27T05:23:21.563Z,440
2016-08-27T05:23:55.852Z,452
2016-08-27T05:24:30.115Z,460
2016-08-27T05:25:04.406Z,464
2016-08-27T05:26:02.553Z,476
2016-08-27T05:26:36.832Z,480
2016-08-27T05:27:11.117Z,488
2016-08-27T05:27:45.398Z,500
2016-08-27T05:28:19.663Z,508
2016-08-27T05:28:53.944Z,516
2016-08-27T05:29:28.255Z,524
2016-08-27T05:30:02.556Z,528
2016-08-27T05:30:36.842Z,536
2016-08-27T05:31:35.033Z,548
2016-08-27T05:32:09.315Z,560
2016-08-27T05:32:43.601Z,568
2016-08-27T05:33:17.898Z,580
2016-08-27T05:33:52.190Z,604
2016-08-27T05:34:26.475Z,616
2016-08-27T05:35:00.754Z,628
2016-08-27T05:35:35.024Z,644
2016-08-27T05:36:09.313Z,652
2016-08-27T05:36:43.604Z,660
2016-08-27T05:37:17.878Z,668
2016-08-27T05:37:52.178Z,676
2016-08-27T05:38:26.467Z,684
2016-08-27T05:39:00.764Z,696
2016-08-27T05:39:35.057Z,712
2016-08-27T05:40:09.324Z,724
2016-08-27T05:40:43.616Z,736
2016-08-27T05:41:17.919Z,744
2016-08-27T05:41:52.218Z,752
2016-08-27T05:42:26.493Z,756
2016-08-27T05:43:00.785Z,768
2016-08-27T05:43:35.076Z,780
2016-08-27T05:44:09.352Z,788
2016-08-27T05:44:43.644Z,796
2016-08-27T05:45:17.917Z,804
2016-08-27T05:45:53.016Z,808
2016-08-27T05:46:27.302Z,824
2016-08-27T05:47:01.590Z,832
2016-08-27T05:47:35.868Z,840
2016-08-27T05:48:10.172Z,844
2016-08-27T05:48:44.469Z,856
2016-08-27T05:49:18.739Z,864
2016-08-27T05:49:53.023Z,868
2016-08-27T05:50:27.321Z,872
2016-08-27T05:51:01.606Z,872
2016-08-27T05:51:35.884Z,876
2016-08-27T05:52:10.188Z,876
2016-08-27T05:52:44.471Z,880
2016-08-27T05:53:18.772Z,888
2016-08-27T05:53:53.061Z,884
2016-08-27T05:54:27.349Z,888
2016-08-27T05:55:01.640Z,896
2016-08-27T05:55:35.906Z,904
2016-08-27T05:56:10.176Z,912
2016-08-27T05:56:44.455Z,936
2016-08-27T05:57:18.766Z,964
2016-08-27T05:57:53.051Z,996
2016-08-27T05:58:27.348Z,1044
2016-08-27T05:59:01.642Z,1112
2016-08-27T05:59:35.918Z,1160
2016-08-27T06:00:10.194Z,1172
2016-08-27T06:00:44.478Z,1172
2016-08-27T06:01:18.764Z,1216
2016-08-27T06:01:53.063Z,1240
2016-08-27T06:02:27.373Z,1260
2016-08-27T06:03:01.656Z,1272
2016-08-27T06:03:35.937Z,1288
2016-08-27T06:04:11.023Z,1272
2016-08-27T06:04:45.308Z,1264
2016-08-27T06:05:19.592Z,1244
2016-08-27T06:05:53.871Z,1088
2016-08-27T06:06:28.171Z,1200
2016-08-27T06:07:02.460Z,1348
2016-08-27T06:07:36.756Z,1340
2016-08-27T06:08:11.055Z,1408
2016-08-27T06:08:45.346Z,1420
2016-08-27T06:09:19.624Z,1416
2016-08-27T06:09:53.912Z,1448
2016-08-27T06:10:28.224Z,1356
2016-08-27T06:11:02.517Z,1492
2016-08-27T06:11:36.810Z,1468
2016-08-27T06:12:11.095Z,1540
2016-08-27T06:12:45.387Z,1552
2016-08-27T06:13:19.677Z,1576
2016-08-27T06:13:53.968Z,1256
2016-08-27T06:14:28.241Z,1128
2016-08-27T06:15:02.519Z,1224
2016-08-27T06:15:36.812Z,1180
2016-08-27T06:16:11.102Z,1668
2016-08-27T06:16:45.408Z,1428
2016-08-27T06:17:19.712Z,1760
2016-08-27T06:17:53.996Z,1796
2016-08-27T06:18:28.277Z,1844
2016-08-27T06:19:02.561Z,1868
2016-08-27T06:19:36.849Z,1900
2016-08-27T06:20:11.124Z,1904
2016-08-27T06:20:45.418Z,1904
2016-08-27T06:21:19.693Z,1908
2016-08-27T06:21:53.992Z,1904
2016-08-27T06:22:28.283Z,1912
2016-08-27T06:23:02.584Z,1916
2016-08-27T06:23:36.878Z,1928
2016-08-27T06:24:11.167Z,1928
2016-08-27T06:24:45.450Z,1920
2016-08-27T06:25:19.727Z,1952
2016-08-27T06:25:54.020Z,1980
2016-08-27T06:26:28.525Z,2004
2016-08-27T06:27:02.802Z,2032
2016-08-27T06:27:37.097Z,2044
2016-08-27T06:28:11.408Z,2068
2016-08-27T06:28:45.708Z,2092
2016-08-27T06:29:19.991Z,2116
2016-08-27T06:29:54.274Z,2128
2016-08-27T06:30:28.579Z,2136
2016-08-27T06:31:02.877Z,2144
2016-08-27T06:31:37.166Z,2156
2016-08-27T06:32:11.452Z,2168
2016-08-27T06:32:45.752Z,2176
2016-08-27T06:33:20.031Z,2180
2016-08-27T06:33:54.305Z,2192
2016-08-27T06:34:28.584Z,2192
2016-08-27T06:35:02.878Z,2192
2016-08-27T06:35:37.168Z,2184
2016-08-27T06:36:11.466Z,2172
2016-08-27T06:36:45.754Z,2208
2016-08-27T06:37:20.046Z,2192
2016-08-27T06:37:54.345Z,2196
2016-08-27T06:38:28.632Z,2208
2016-08-27T06:39:02.910Z,2204
2016-08-27T06:39:37.186Z,2208
2016-08-27T06:40:11.498Z,2236
2016-08-27T06:40:45.779Z,2240
2016-08-27T06:41:20.070Z,2244
2016-08-27T06:41:54.360Z,2280
2016-08-27T06:42:28.648Z,2284
2016-08-27T06:43:02.938Z,2280
2016-08-27T06:43:37.237Z,2296
2016-08-27T06:44:11.519Z,2296
2016-08-27T06:44:45.806Z,2324
2016-08-27T06:45:20.087Z,2348
2016-08-27T06:45:54.367Z,2368
2016-08-27T06:46:28.646Z,2368
2016-08-27T06:47:02.941Z,2352
2016-08-27T06:47:37.211Z,2372
2016-08-27T06:48:11.505Z,2348
2016-08-27T06:48:45.792Z,2364
2016-08-27T06:49:20.091Z,2364
2016-08-27T06:49:54.366Z,2344
2016-08-27T06:50:28.640Z,2356
2016-08-27T06:51:02.926Z,2360
2016-08-27T06:51:37.214Z,2428
2016-08-27T06:52:11.506Z,2436
2016-08-27T06:52:45.781Z,2452
2016-08-27T06:53:20.076Z,2424
2016-08-27T06:53:54.351Z,2528
2016-08-27T06:54:28.635Z,2540
2016-08-27T06:55:02.917Z,2552
2016-08-27T06:55:37.227Z,2544
2016-08-27T06:56:11.509Z,2528
2016-08-27T06:56:45.785Z,2544
2016-08-27T06:57:20.059Z,2580
2016-08-27T06:57:54.347Z,2556
2016-08-27T06:58:28.630Z,2560
2016-08-27T06:59:02.912Z,2488
2016-08-27T06:59:37.199Z,2376
2016-08-27T07:00:11.497Z,2600
2016-08-27T07:00:45.792Z,2648
2016-08-27T07:01:20.102Z,2480
2016-08-27T07:01:54.400Z,2676
2016-08-27T07:02:28.712Z,2704
2016-08-27T07:03:03.020Z,2720
2016-08-27T07:03:37.319Z,2716
2016-08-27T07:04:11.599Z,2728
2016-08-27T07:04:45.890Z,2740
2016-08-27T07:05:20.166Z,2680
2016-08-27T07:05:54.448Z,2720
2016-08-27T07:06:28.723Z,2772
2016-08-27T07:07:02.993Z,2788
2016-08-27T07:07:37.293Z,2776
2016-08-27T07:08:11.588Z,2784
2016-08-27T07:08:45.881Z,2768
2016-08-27T07:09:20.169Z,2776
2016-08-27T07:09:54.443Z,2812
2016-08-27T07:10:28.745Z,2812
2016-08-27T07:11:03.027Z,2800
2016-08-27T07:11:37.311Z,2772
2016-08-27T07:12:11.596Z,2792
2016-08-27T07:12:45.895Z,2764
2016-08-27T07:13:20.165Z,2684
2016-08-27T07:13:54.457Z,2816
2016-08-27T07:14:28.756Z,2380
2016-08-27T07:15:03.056Z,2716
2016-08-27T07:15:37.353Z,2792
2016-08-27T07:16:11.638Z,2784
2016-08-27T07:16:45.938Z,2776
2016-08-27T07:17:20.230Z,2736
2016-08-27T07:17:54.515Z,2744
2016-08-27T07:18:28.800Z,2744
2016-08-27T07:19:03.076Z,2776
2016-08-27T07:19:37.366Z,2784
2016-08-27T07:20:11.650Z,2760
2016-08-27T07:20:45.933Z,2776
2016-08-27T07:21:20.222Z,2748
2016-08-27T07:21:54.526Z,2772
2016-08-27T07:22:28.807Z,2772
2016-08-27T07:23:03.098Z,2772
2016-08-27T07:23:37.398Z,2780
2016-08-27T07:24:11.696Z,2796
2016-08-27T07:24:45.987Z,2808
2016-08-27T07:25:20.272Z,2196
2016-08-27T07:25:54.657Z,2756
2016-08-27T07:26:28.929Z,2796
2016-08-27T07:27:03.211Z,2780
2016-08-27T07:27:37.483Z,2784
2016-08-27T07:28:11.777Z,2808
2016-08-27T07:28:46.066Z,2808
2016-08-27T07:29:20.372Z,2784
2016-08-27T07:29:54.670Z,2792
2016-08-27T07:30:28.963Z,2776
2016-08-27T07:31:03.254Z,2788
2016-08-27T07:31:37.532Z,2820
2016-08-27T07:32:11.824Z,2816
2016-08-27T07:32:46.125Z,2828
2016-08-27T07:33:20.402Z,2840
2016-08-27T07:33:54.934Z,2860
2016-08-27T07:34:29.230Z,2868
2016-08-27T07:35:03.514Z,2880
2016-08-27T07:35:37.800Z,2872
2016-08-27T07:36:12.080Z,2872
2016-08-27T07:36:46.358Z,2900
2016-08-27T07:37:20.633Z,2892
2016-08-27T07:37:54.954Z,2844
2016-08-27T07:38:29.246Z,2880
2016-08-27T07:39:03.541Z,2888
2016-08-27T07:39:37.843Z,2924
2016-08-27T07:40:12.121Z,2924
2016-08-27T07:40:46.403Z,2856
2016-08-27T07:41:20.700Z,2852
2016-08-27T07:41:54.986Z,2896
2016-08-27T07:42:29.289Z,2896
2016-08-27T07:43:03.571Z,2860
2016-08-27T07:43:37.863Z,2836
2016-08-27T07:44:12.146Z,2768
2016-08-27T07:44:46.426Z,2824
2016-08-27T07:45:20.714Z,2856
2016-08-27T07:45:55.005Z,2892
2016-08-27T07:46:29.293Z,2884
2016-08-27T07:47:03.570Z,2892
2016-08-27T07:47:37.849Z,2904
2016-08-27T07:48:12.127Z,2916
2016-08-27T07:48:46.407Z,2928
2016-08-27T07:49:20.719Z,2960
2016-08-27T07:49:55.011Z,2988
2016-08-27T07:50:29.278Z,3000
2016-08-27T07:51:03.575Z,3012
2016-08-27T07:51:37.947Z,3016
2016-08-27T07:52:12.225Z,2984
2016-08-27T07:52:46.504Z,2984
2016-08-27T07:53:20.791Z,2976
2016-08-27T07:53:55.072Z,2948
2016-08-27T07:54:29.366Z,2908
2016-08-27T07:55:03.653Z,2908
2016-08-27T07:55:37.944Z,2940
2016-08-27T07:56:12.230Z,2940
2016-08-27T07:56:46.527Z,2952
2016-08-27T07:57:20.832Z,2952
2016-08-27T07:57:55.106Z,2944
2016-08-27T07:58:29.397Z,2920
2016-08-27T07:59:03.690Z,2940
2016-08-27T07:59:37.969Z,2928
2016-08-27T08:00:12.260Z,2904
2016-08-27T08:00:46.549Z,2912
2016-08-27T08:01:20.832Z,2896
2016-08-27T08:01:55.122Z,2920
2016-08-27T08:02:29.416Z,2904
2016-08-27T08:03:03.718Z,2896
2016-08-27T08:03:37.996Z,2912
2016-08-27T08:04:12.290Z,2908
2016-08-27T08:04:46.558Z,2888
2016-08-27T08:05:20.830Z,2896
2016-08-27T08:05:55.116Z,2920
2016-08-27T08:06:29.390Z,2924
2016-08-27T08:07:03.671Z,2916
2016-08-27T08:07:37.967Z,2920
2016-08-27T08:08:12.246Z,2916
2016-08-27T08:08:46.543Z,2912